Time;durP1;ratioP1;P1;durP2;ratioP2;P2;SDS_P1;SDS_P2;PMS_P1;PMS_P2;Temp;Humidity;BMP_temperature;BMP_pressure;BME280_temperature;BME280_humidity;BME280_pressure;Samples;Min_cycle;Max_cycle;Signal;HPM_P1;HPM_P2
2022/01/23 04:01:49;;;;;;;3.80;2.70;;;6.30;81.80;;;;;;5571850;23;20477;-78
2022/01/23 04:04:27;;;;;;;3.67;2.40;;;6.40;81.60;;;;;;4994227;28;20445;-78
2022/01/23 04:06:54;;;;;;;2.90;2.10;;;6.30;81.90;;;;;;4994284;28;20916;-78
2022/01/23 04:09:21;;;;;;;4.07;2.47;;;6.30;81.90;;;;;;4993745;28;21057;-79
2022/01/23 04:11:48;;;;;;;3.20;2.43;;;6.40;81.90;;;;;;4994967;28;20476;-78
2022/01/23 04:14:17;;;;;;;3.90;3.00;;;6.40;81.70;;;;;;4995636;28;20463;-77
2022/01/23 04:47:46;;;;;;;3.83;2.53;;;6.50;81.40;;;;;;4998053;28;20932;-78
2022/01/23 05:01:01;;;;;;;3.20;2.50;;;6.50;81.40;;;;;;4997348;28;20480;-78
2022/01/23 05:06:30;;;;;;;3.63;2.80;;;6.50;81.60;;;;;;5022527;28;20425;-76
2022/01/23 05:08:58;;;;;;;3.57;3.00;;;6.50;81.40;;;;;;5022503;28;20484;-76
2022/01/23 05:11:25;;;;;;;4.77;4.27;;;6.50;81.40;;;;;;5006422;28;20461;-78
2022/01/23 05:13:52;;;;;;;5.10;4.60;;;6.40;81.50;;;;;;4997528;28;20999;-78
2022/01/23 05:16:19;;;;;;;4.53;4.10;;;6.40;81.20;;;;;;4997370;28;20479;-78
2022/01/23 05:18:46;;;;;;;3.63;2.57;;;6.40;81.30;;;;;;4997371;28;20445;-78
2022/01/23 05:21:42;;;;;;;3.77;2.60;;;6.40;81.30;;;;;;4996813;28;21042;-78
2022/01/23 05:24:09;;;;;;;3.60;2.50;;;6.40;81.40;;;;;;4996845;28;20460;-78
2022/01/23 05:26:43;;;;;;;3.73;2.87;;;6.40;81.30;;;;;;4996442;28;20866;-79
2022/01/23 05:29:09;;;;;;;3.20;2.37;;;6.40;81.50;;;;;;5006973;28;20491;-78
2022/01/23 05:31:36;;;;;;;3.63;2.53;;;6.40;81.40;;;;;;5003431;28;20817;-79
2022/01/23 05:34:03;;;;;;;3.03;2.20;;;6.40;81.40;;;;;;5000246;28;20457;-78
2022/01/23 05:36:29;;;;;;;3.40;2.50;;;6.40;81.20;;;;;;4999243;28;20550;-78
2022/01/23 05:38:56;;;;;;;3.73;2.20;;;6.40;81.10;;;;;;4998535;28;20456;-79
2022/01/23 05:41:24;;;;;;;3.13;2.27;;;6.40;81.20;;;;;;4998311;28;20474;-78
2022/01/23 05:43:51;;;;;;;2.73;1.70;;;6.40;81.10;;;;;;4998201;28;20460;-78
2022/01/23 05:46:18;;;;;;;3.43;2.80;;;6.40;81.00;;;;;;4997760;28;20527;-79
2022/01/23 05:48:45;;;;;;;3.40;2.50;;;6.30;81.50;;;;;;4998468;28;20481;-79
2022/01/23 05:51:12;;;;;;;3.60;2.30;;;6.30;81.50;;;;;;4997640;28;20957;-78
2022/01/23 05:53:39;;;;;;;3.20;2.20;;;6.20;81.40;;;;;;4997304;28;20465;-78
2022/01/23 05:56:07;;;;;;;3.50;2.63;;;6.20;81.50;;;;;;4996456;28;20449;-78
2022/01/23 05:58:35;;;;;;;3.40;2.40;;;6.20;81.50;;;;;;4996358;28;20449;-79
2022/01/23 06:01:02;;;;;;;3.27;2.37;;;6.20;81.80;;;;;;4996720;28;20477;-78
2022/01/23 06:03:29;;;;;;;3.67;2.30;;;6.20;81.70;;;;;;4996731;28;20452;-78
2022/01/23 06:05:56;;;;;;;3.47;2.63;;;6.10;82.10;;;;;;4996642;28;20500;-78
2022/01/23 06:08:23;;;;;;;3.10;2.60;;;6.10;82.00;;;;;;4996270;28;20547;-78
2022/01/23 06:10:56;;;;;;;3.50;2.40;;;6.10;81.70;;;;;;4996286;28;20477;-78
2022/01/23 06:13:24;;;;;;;3.37;2.37;;;6.20;81.80;;;;;;4996424;28;20438;-78
2022/01/23 06:15:52;;;;;;;3.10;2.17;;;6.20;81.70;;;;;;4996424;28;20445;-79
2022/01/23 06:18:19;;;;;;;3.70;2.87;;;6.30;81.60;;;;;;4996234;28;20871;-78
2022/01/23 06:20:46;;;;;;;3.30;2.40;;;6.30;81.60;;;;;;4996204;28;20465;-78
2022/01/23 06:23:13;;;;;;;3.07;2.13;;;6.30;81.60;;;;;;4996218;28;20548;-78
2022/01/23 06:25:42;;;;;;;3.20;2.50;;;6.30;81.70;;;;;;4996036;28;20461;-78
2022/01/23 06:28:10;;;;;;;3.60;2.43;;;6.30;81.60;;;;;;4996424;28;20504;-78
2022/01/23 06:30:37;;;;;;;3.83;3.40;;;6.30;81.60;;;;;;4997663;28;20453;-78
2022/01/23 06:33:06;;;;;;;3.70;2.73;;;6.40;81.40;;;;;;4997246;28;20453;-77
2022/01/23 06:35:35;;;;;;;3.50;2.50;;;6.40;81.30;;;;;;4996004;28;20540;-78
2022/01/23 06:38:02;;;;;;;3.80;3.00;;;6.30;81.50;;;;;;4995807;28;20549;-78
2022/01/23 06:40:28;;;;;;;3.30;2.40;;;6.30;81.60;;;;;;4995128;28;20508;-75
2022/01/23 06:42:55;;;;;;;3.47;2.90;;;6.00;81.70;;;;;;4996124;28;20503;-78
2022/01/23 06:45:22;;;;;;;3.10;2.27;;;5.80;82.10;;;;;;4995584;28;20449;-78
2022/01/23 06:47:49;;;;;;;3.20;2.40;;;5.80;83.10;;;;;;4995373;28;20941;-78
2022/01/23 06:50:17;;;;;;;3.40;2.60;;;5.80;82.70;;;;;;4995584;28;20833;-78
2022/01/23 06:52:43;;;;;;;3.33;2.60;;;5.90;82.40;;;;;;4995466;28;20469;-78
2022/01/23 06:55:10;;;;;;;3.77;2.90;;;5.90;82.40;;;;;;4995388;28;20450;-78
2022/01/23 06:57:37;;;;;;;3.67;2.60;;;6.00;82.40;;;;;;4995416;28;20504;-77
2022/01/23 07:00:05;;;;;;;3.93;2.80;;;6.00;82.40;;;;;;4995210;28;20511;-78
2022/01/23 07:02:32;;;;;;;3.63;2.93;;;6.10;82.30;;;;;;4994962;28;20485;-78
2022/01/23 07:04:59;;;;;;;3.47;2.70;;;6.10;82.20;;;;;;4995223;28;20457;-78
2022/01/23 07:07:27;;;;;;;3.50;3.07;;;6.10;82.10;;;;;;4995444;28;20449;-78
2022/01/23 07:09:53;;;;;;;3.40;2.60;;;6.20;81.90;;;;;;4995158;28;20547;-79
2022/01/23 07:12:20;;;;;;;3.50;2.77;;;6.20;81.80;;;;;;4994684;28;20788;-78
2022/01/23 07:14:47;;;;;;;3.57;2.80;;;6.20;81.80;;;;;;4995018;28;20453;-78
2022/01/23 07:17:13;;;;;;;3.70;2.70;;;6.20;81.60;;;;;;4994999;28;20476;-78
2022/01/23 07:19:40;;;;;;;3.77;2.70;;;6.30;81.50;;;;;;4994901;28;20445;-78
2022/01/23 07:22:07;;;;;;;3.40;2.87;;;6.30;81.50;;;;;;4994816;28;20500;-78
2022/01/23 07:24:35;;;;;;;3.50;2.60;;;6.30;81.60;;;;;;4995392;28;20480;-78
2022/01/23 07:27:11;;;;;;;4.27;3.80;;;6.30;81.70;;;;;;4994966;28;20453;-78
2022/01/23 07:29:38;;;;;;;3.37;2.47;;;6.20;81.60;;;;;;4995578;28;20667;-78
2022/01/23 07:32:08;;;;;;;4.23;3.40;;;6.20;81.70;;;;;;4994879;28;20472;-79
2022/01/23 07:34:35;;;;;;;3.80;3.13;;;6.20;81.90;;;;;;4994718;28;20458;-78
2022/01/23 07:37:01;;;;;;;3.73;2.97;;;6.30;81.90;;;;;;4994603;28;20507;-78
2022/01/23 07:39:28;;;;;;;4.10;2.80;;;6.30;81.70;;;;;;4994307;28;20865;-79
2022/01/23 07:41:56;;;;;;;3.77;2.80;;;6.30;81.50;;;;;;4994247;28;20976;-78
2022/01/23 07:44:23;;;;;;;3.70;3.30;;;6.30;81.30;;;;;;4994646;28;20449;-78
2022/01/23 07:46:49;;;;;;;3.70;3.30;;;6.30;81.40;;;;;;4994526;28;20504;-78
2022/01/23 07:49:16;;;;;;;3.77;3.00;;;6.30;81.50;;;;;;4994408;28;20485;-78
2022/01/23 07:51:43;;;;;;;3.60;3.20;;;6.30;81.60;;;;;;4994330;28;20469;-78
2022/01/23 07:54:09;;;;;;;3.60;3.17;;;6.30;81.30;;;;;;4994341;28;20504;-78
2022/01/23 07:56:38;;;;;;;4.00;3.57;;;6.40;81.30;;;;;;4994316;28;20444;-78
2022/01/23 07:59:06;;;;;;;4.40;4.00;;;6.40;81.30;;;;;;4993943;28;20504;-79
2022/01/23 08:01:33;;;;;;;4.00;3.20;;;6.40;81.20;;;;;;4993737;28;21003;-79
2022/01/23 08:04:00;;;;;;;4.47;4.00;;;6.40;81.20;;;;;;4993851;28;20862;-78
2022/01/23 08:06:31;;;;;;;4.30;3.73;;;6.40;81.40;;;;;;4994109;28;21007;-78
2022/01/23 08:08:58;;;;;;;4.30;3.63;;;6.50;81.40;;;;;;4994428;28;20476;-78
2022/01/23 08:11:25;;;;;;;4.17;3.47;;;6.50;81.50;;;;;;4994995;28;20478;-78
2022/01/23 08:13:52;;;;;;;3.77;3.30;;;6.50;81.40;;;;;;4995815;28;20457;-77
2022/01/23 08:16:20;;;;;;;4.33;3.40;;;6.50;81.30;;;;;;4994758;28;20511;-77
2022/01/23 08:18:46;;;;;;;3.60;3.03;;;6.60;81.30;;;;;;4995336;28;20808;-78
2022/01/23 08:21:13;;;;;;;4.37;3.40;;;6.60;81.20;;;;;;4994749;28;20540;-76
2022/01/23 08:23:40;;;;;;;4.10;3.50;;;6.70;81.30;;;;;;4994940;28;20448;-78
2022/01/23 08:26:07;;;;;;;3.70;3.17;;;6.70;81.30;;;;;;4994564;28;20451;-79
2022/01/23 08:28:34;;;;;;;4.13;3.40;;;6.70;81.10;;;;;;4994800;28;20879;-79
2022/01/23 08:31:01;;;;;;;4.20;3.80;;;6.70;81.20;;;;;;4994987;28;20492;-79
2022/01/23 08:33:29;;;;;;;4.63;4.23;;;6.70;81.10;;;;;;4994525;28;20453;-79
2022/01/23 08:35:57;;;;;;;4.07;3.67;;;6.80;81.00;;;;;;4993832;28;20445;-78
2022/01/23 08:38:24;;;;;;;4.60;4.20;;;6.80;81.00;;;;;;4995240;28;20454;-79
2022/01/23 08:41:49;;;;;;;4.87;4.10;;;6.60;80.80;;;;;;4995266;28;20496;-79
2022/01/23 08:43:47;;;;;;;4.00;3.20;;;6.60;82.10;;;;;;4994831;28;20441;-77
2022/01/23 08:46:14;;;;;;;4.70;3.80;;;6.70;81.60;;;;;;4994043;28;20503;-78
2022/01/23 08:48:42;;;;;;;4.40;4.00;;;6.60;81.70;;;;;;4993958;28;20441;-78
2022/01/23 08:51:09;;;;;;;4.33;3.93;;;6.30;81.80;;;;;;4994059;28;20849;-78
2022/01/23 08:53:35;;;;;;;4.43;4.03;;;6.00;83.80;;;;;;4993602;28;20456;-78
2022/01/23 08:56:03;;;;;;;4.57;4.17;;;6.30;83.20;;;;;;4993803;28;20867;-78
2022/01/23 08:58:29;;;;;;;4.60;4.03;;;6.40;82.80;;;;;;4993799;28;20507;-78
2022/01/23 09:00:56;;;;;;;3.50;3.13;;;6.50;82.90;;;;;;4993679;28;20469;-78
2022/01/23 09:03:23;;;;;;;3.50;2.90;;;6.60;82.70;;;;;;4996219;28;20456;-78
2022/01/23 09:05:51;;;;;;;3.13;2.50;;;6.70;82.10;;;;;;4997383;28;20457;-78
2022/01/23 09:08:19;;;;;;;4.00;3.53;;;6.70;81.50;;;;;;4997545;28;20460;-78
2022/01/23 09:10:54;;;;;;;3.47;2.90;;;6.70;81.90;;;;;;4997067;28;21010;-77
2022/01/23 09:13:32;;;;;;;3.97;3.07;;;6.80;81.50;;;;;;4997386;28;20496;-77
2022/01/23 09:15:59;;;;;;;4.27;3.87;;;6.80;81.60;;;;;;4996928;28;20921;-78
2022/01/23 09:18:25;;;;;;;4.47;4.00;;;6.90;81.20;;;;;;4996846;28;20484;-78
2022/01/23 09:20:53;;;;;;;4.40;4.00;;;7.00;81.00;;;;;;4996983;28;20465;-78
2022/01/23 09:23:20;;;;;;;4.37;3.87;;;6.70;81.50;;;;;;4997036;28;20898;-78
2022/01/23 09:25:47;;;;;;;4.10;3.70;;;6.90;81.20;;;;;;4996996;28;20484;-78
2022/01/23 09:28:14;;;;;;;4.40;4.00;;;7.00;80.90;;;;;;4997066;28;20453;-78
2022/01/23 09:30:43;;;;;;;4.07;3.63;;;7.00;80.60;;;;;;4996930;28;20549;-77
2022/01/23 09:33:10;;;;;;;5.23;4.83;;;6.70;81.10;;;;;;4996999;28;20470;-78
2022/01/23 09:35:36;;;;;;;4.57;4.17;;;6.90;81.30;;;;;;4996815;28;20496;-78
2022/01/23 09:38:04;;;;;;;4.80;4.20;;;6.60;81.50;;;;;;4996797;28;20449;-78
2022/01/23 09:40:31;;;;;;;5.13;4.63;;;6.60;82.70;;;;;;4996799;28;20449;-77
2022/01/23 09:43:03;;;;;;;4.50;4.10;;;6.40;83.10;;;;;;4996807;28;20875;-78
2022/01/23 09:45:31;;;;;;;5.77;5.17;;;6.30;83.50;;;;;;4996652;28;20433;-78
2022/01/23 09:48:02;;;;;;;5.17;4.67;;;6.40;83.80;;;;;;4996621;28;20453;-78
2022/01/23 09:50:30;;;;;;;5.30;4.70;;;6.50;83.40;;;;;;4996766;28;20523;-78
2022/01/23 09:52:58;;;;;;;4.80;4.30;;;6.50;83.20;;;;;;4996787;28;20530;-78
2022/01/23 09:55:27;;;;;;;5.67;5.10;;;6.40;82.80;;;;;;4996513;28;20507;-77
2022/01/23 09:57:54;;;;;;;5.60;5.00;;;6.30;82.80;;;;;;4996453;28;20445;-78
2022/01/23 10:00:24;;;;;;;5.47;4.97;;;6.00;84.30;;;;;;4996270;28;20448;-77
2022/01/23 10:02:51;;;;;;;5.27;4.77;;;6.00;84.60;;;;;;4996019;28;20807;-78
2022/01/23 10:05:19;;;;;;;5.13;4.50;;;6.40;84.30;;;;;;4996002;28;20869;-78
2022/01/23 10:07:46;;;;;;;4.33;3.93;;;6.40;83.20;;;;;;4996250;28;20449;-78
2022/01/23 10:10:18;;;;;;;5.40;4.90;;;6.60;83.80;;;;;;4996262;28;20481;-78
2022/01/23 10:12:58;;;;;;;4.37;3.97;;;6.90;82.80;;;;;;4996635;28;20496;-78
2022/01/23 10:15:27;;;;;;;4.40;4.00;;;6.50;81.30;;;;;;4995639;28;20833;-78
2022/01/23 10:17:55;;;;;;;4.20;3.80;;;6.70;82.30;;;;;;4996107;28;20450;-78
2022/01/23 10:20:22;;;;;;;4.10;3.70;;;6.60;81.40;;;;;;4995880;28;20839;-78
2022/01/23 10:22:51;;;;;;;4.23;3.83;;;6.50;82.20;;;;;;4996114;28;20638;-78
2022/01/23 10:25:20;;;;;;;3.70;3.33;;;6.70;81.10;;;;;;4995894;28;20453;-78
2022/01/23 10:27:59;;;;;;;3.73;3.33;;;6.40;81.70;;;;;;5000664;28;20457;-78
2022/01/23 10:30:27;;;;;;;5.60;3.90;;;6.40;82.30;;;;;;5003756;28;20465;-78
2022/01/23 10:33:06;;;;;;;3.60;3.17;;;6.60;82.00;;;;;;4996065;28;20963;-78
2022/01/23 10:35:33;;;;;;;4.90;4.30;;;6.60;81.20;;;;;;4996390;28;20442;-79
2022/01/23 10:38:07;;;;;;;4.87;3.93;;;6.60;81.80;;;;;;4996031;28;20476;-78
2022/01/23 10:40:37;;;;;;;4.43;3.30;;;6.40;81.20;;;;;;4996976;28;20432;-79
2022/01/23 10:48:45;;;;;;;4.20;3.80;;;5.90;83.30;;;;;;4997602;28;20420;-79
2022/01/23 10:51:26;;;;;;;3.83;3.43;;;5.90;82.90;;;;;;4995518;28;20524;-79
2022/01/23 10:53:58;;;;;;;3.90;3.30;;;5.80;83.80;;;;;;4995201;28;20963;-79
2022/01/23 10:56:25;;;;;;;4.43;3.77;;;5.70;82.90;;;;;;4995433;28;20868;-79
2022/01/23 10:59:02;;;;;;;4.60;3.80;;;5.70;83.20;;;;;;4996136;28;20453;-79
2022/01/23 11:01:29;;;;;;;3.57;2.90;;;6.00;83.50;;;;;;4995477;28;20473;-78
2022/01/23 11:04:07;;;;;;;3.97;2.83;;;5.80;82.40;;;;;;5000753;28;20488;-78
2022/01/23 11:06:50;;;;;;;3.90;3.10;;;5.70;82.70;;;;;;5005722;28;20449;-78
2022/01/23 11:09:17;;;;;;;3.37;2.93;;;5.50;83.20;;;;;;5006047;28;20522;-78
2022/01/23 11:11:47;;;;;;;3.60;2.90;;;5.60;83.80;;;;;;5003645;28;20516;-78
2022/01/23 11:19:46;;;;;;;4.30;3.47;;;5.50;84.10;;;;;;4995139;28;20485;-78
2022/01/23 11:22:18;;;;;;;4.77;3.90;;;5.50;84.90;;;;;;4994861;28;20848;-78
2022/01/23 11:24:47;;;;;;;4.30;3.80;;;5.50;84.30;;;;;;4994463;28;20449;-78
2022/01/23 11:27:16;;;;;;;4.90;4.40;;;5.60;85.00;;;;;;4994884;28;20453;-78
2022/01/23 11:29:59;;;;;;;4.50;3.90;;;5.50;85.00;;;;;;4994725;28;20504;-79
2022/01/23 11:32:35;;;;;;;5.00;4.00;;;5.50;84.70;;;;;;4994795;28;20531;-78
2022/01/23 11:35:07;;;;;;;3.60;3.03;;;5.60;84.50;;;;;;4994898;28;20455;-78
2022/01/23 11:37:34;;;;;;;4.57;4.10;;;5.80;83.80;;;;;;4995194;28;20488;-79
2022/01/23 11:40:08;;;;;;;4.10;3.70;;;6.00;83.30;;;;;;4995649;28;20461;-78
2022/01/23 11:53:43;;;;;;;4.30;3.80;;;6.20;81.60;;;;;;4994286;28;21007;-78
2022/01/23 11:54:07;;;;;;;4.20;3.70;;;6.10;81.40;;;;;;4993992;28;20437;-79
2022/01/23 11:56:38;;;;;;;3.83;3.37;;;6.00;81.30;;;;;;4994469;28;20425;-78
2022/01/23 11:59:34;;;;;;;3.40;3.10;;;5.80;81.80;;;;;;4994073;28;20570;-78
2022/01/23 12:02:27;;;;;;;3.83;3.10;;;5.90;83.10;;;;;;4981162;28;21000;-79
2022/01/23 12:05:22;;;;;;;4.23;3.37;;;5.90;82.40;;;;;;4994621;28;20434;-78
2022/01/23 12:08:16;;;;;;;3.83;3.40;;;6.00;82.10;;;;;;4984844;28;20461;-78
2022/01/23 12:11:15;;;;;;;4.00;3.00;;;6.00;81.00;;;;;;4998801;28;20480;-79
2022/01/23 12:13:57;;;;;;;4.30;3.50;;;5.80;81.80;;;;;;4997524;28;20465;-78
2022/01/23 12:16:53;;;;;;;3.60;2.70;;;6.00;81.60;;;;;;4997020;28;20940;-79
2022/01/23 12:19:23;;;;;;;3.60;2.97;;;6.00;80.60;;;;;;4997593;28;20429;-79
2022/01/23 12:21:52;;;;;;;3.53;2.87;;;5.90;81.50;;;;;;4997646;28;20465;-79
2022/01/23 12:24:20;;;;;;;4.00;3.60;;;6.00;81.80;;;;;;4998404;28;20453;-79
2022/01/23 12:26:48;;;;;;;4.13;3.37;;;6.10;81.90;;;;;;4998419;28;20517;-79
2022/01/23 12:29:17;;;;;;;5.83;3.67;;;5.90;81.00;;;;;;4998274;28;20945;-79
2022/01/23 12:31:44;;;;;;;3.77;3.33;;;5.90;81.80;;;;;;4997875;28;20492;-78
2022/01/23 12:34:11;;;;;;;4.50;3.60;;;5.80;81.50;;;;;;4998601;28;20437;-79
2022/01/23 12:36:41;;;;;;;3.57;3.00;;;5.80;82.70;;;;;;4997750;28;20452;-79
2022/01/23 12:39:19;;;;;;;3.30;2.90;;;5.80;81.50;;;;;;5003456;28;20476;-79
2022/01/23 12:41:59;;;;;;;3.57;2.33;;;5.80;81.50;;;;;;4998905;28;20527;-79
2022/01/23 12:44:38;;;;;;;3.50;2.50;;;5.80;81.90;;;;;;4998846;28;20443;-79
2022/01/23 12:47:07;;;;;;;3.60;2.00;;;6.30;81.00;;;;;;4999566;28;20437;-80
2022/01/23 12:49:35;;;;;;;3.00;2.17;;;6.50;80.20;;;;;;5000950;28;20449;-80
2022/01/23 12:52:19;;;;;;;3.27;2.37;;;6.40;78.80;;;;;;4999338;28;20568;-79
2022/01/23 12:54:57;;;;;;;3.03;2.13;;;6.50;78.40;;;;;;4996798;28;20489;-79
2022/01/23 12:57:32;;;;;;;3.10;2.27;;;6.60;78.80;;;;;;4998023;28;20444;-79
2022/01/23 13:00:03;;;;;;;3.53;2.60;;;6.50;79.40;;;;;;4997847;28;20981;-79
2022/01/23 13:02:39;;;;;;;3.50;2.40;;;6.50;79.10;;;;;;4998295;28;20477;-79
2022/01/23 13:05:07;;;;;;;3.27;2.50;;;6.50;77.70;;;;;;4997910;28;20425;-79
2022/01/23 13:07:41;;;;;;;3.10;1.97;;;6.40;77.90;;;;;;4998024;28;20923;-79
2022/01/23 13:10:24;;;;;;;3.50;2.60;;;6.40;77.40;;;;;;5000468;28;20436;-79
2022/01/23 13:13:04;;;;;;;3.63;2.47;;;6.30;77.90;;;;;;4999419;28;20448;-79
2022/01/23 13:18:32;;;;;;;3.27;2.43;;;6.30;78.70;;;;;;4998240;28;20409;-79
2022/01/23 13:32:26;;;;;;;3.00;2.13;;;6.40;78.10;;;;;;4997349;28;21029;-79
2022/01/23 13:34:57;;;;;;;4.43;2.60;;;6.10;77.40;;;;;;4998192;28;20437;-79
2022/01/23 13:37:26;;;;;;;3.20;2.40;;;6.40;77.30;;;;;;4997815;28;20444;-79
2022/01/23 13:39:59;;;;;;;3.07;1.90;;;6.40;76.10;;;;;;4997364;28;20971;-79
2022/01/23 13:42:49;;;;;;;2.97;1.93;;;6.30;76.30;;;;;;4997426;28;20476;-79
2022/01/23 13:53:47;;;;;;;2.80;1.70;;;6.00;75.00;;;;;;4997598;28;20783;-79
2022/01/23 13:59:18;;;;;;;3.00;1.93;;;5.90;74.80;;;;;;4996696;28;20565;-79
2022/01/23 14:01:52;;;;;;;3.30;2.40;;;5.70;75.30;;;;;;4996877;28;20519;-79
2022/01/23 14:04:20;;;;;;;3.10;2.37;;;6.00;75.80;;;;;;4996553;28;20905;-79
2022/01/23 14:06:48;;;;;;;2.70;1.60;;;6.10;74.90;;;;;;5005534;28;20941;-79
2022/01/23 14:09:16;;;;;;;2.60;1.40;;;6.00;73.10;;;;;;4998421;28;20523;-78
2022/01/23 14:11:47;;;;;;;2.50;1.10;;;6.10;72.80;;;;;;4996976;28;20485;-78
2022/01/23 14:14:16;;;;;;;2.63;1.47;;;6.00;71.70;;;;;;4996749;28;20449;-78
2022/01/23 14:16:44;;;;;;;2.90;1.60;;;6.10;71.70;;;;;;4996833;28;20849;-79
2022/01/23 14:19:15;;;;;;;2.50;1.30;;;6.10;71.90;;;;;;4996546;28;20453;-79
2022/01/23 14:21:43;;;;;;;2.60;1.30;;;5.90;71.50;;;;;;4996957;28;20465;-78
2022/01/23 14:24:10;;;;;;;2.50;1.27;;;5.90;71.10;;;;;;4996823;28;20520;-79
2022/01/23 14:26:37;;;;;;;2.60;1.30;;;5.90;71.60;;;;;;4996770;28;20495;-78
2022/01/23 14:29:08;;;;;;;2.60;1.40;;;6.00;71.10;;;;;;4997535;28;20453;-79
2022/01/23 14:31:38;;;;;;;2.70;1.40;;;5.90;71.40;;;;;;4996660;28;20484;-79
2022/01/23 14:34:23;;;;;;;2.73;1.60;;;6.00;71.60;;;;;;4997349;28;20445;-78
2022/01/23 14:36:58;;;;;;;2.57;1.40;;;6.00;72.20;;;;;;4996296;28;20437;-78
2022/01/23 14:39:25;;;;;;;3.00;1.53;;;6.50;73.60;;;;;;4996464;28;20433;-79
2022/01/23 14:41:52;;;;;;;2.80;1.60;;;7.90;68.30;;;;;;4996472;28;20465;-79
2022/01/23 14:44:23;;;;;;;2.73;1.70;;;8.10;65.50;;;;;;4996033;28;20957;-79
2022/01/23 14:46:52;;;;;;;2.80;1.60;;;7.90;66.30;;;;;;4996167;28;20433;-79
2022/01/23 14:49:23;;;;;;;2.80;1.50;;;7.70;67.10;;;;;;4995861;28;20480;-79
2022/01/23 14:51:51;;;;;;;3.40;2.10;;;7.30;67.80;;;;;;4996081;28;20491;-79
2022/01/23 14:54:18;;;;;;;2.67;1.60;;;7.10;68.80;;;;;;4995633;28;20973;-79
2022/01/23 14:56:45;;;;;;;3.43;2.00;;;7.20;68.80;;;;;;4995732;28;20452;-79
2022/01/23 14:59:13;;;;;;;3.10;2.03;;;7.20;69.10;;;;;;4995054;28;20460;-79
2022/01/23 15:01:44;;;;;;;3.07;1.60;;;7.30;69.30;;;;;;4995197;28;20473;-79
2022/01/23 15:04:12;;;;;;;2.90;1.50;;;7.00;69.60;;;;;;5006441;28;20442;-79
2022/01/23 15:06:44;;;;;;;3.07;1.73;;;6.80;69.00;;;;;;5015424;28;20437;-79
2022/01/23 15:09:13;;;;;;;2.90;1.67;;;6.50;70.40;;;;;;5005128;28;20429;-79
2022/01/23 15:11:40;;;;;;;3.77;1.87;;;6.70;70.20;;;;;;4995518;28;21000;-79
2022/01/23 15:14:08;;;;;;;3.00;2.00;;;6.60;70.10;;;;;;4995579;28;20504;-79
2022/01/23 15:16:35;;;;;;;3.50;1.90;;;6.80;69.80;;;;;;4996080;28;20445;-79
2022/01/23 15:19:03;;;;;;;4.67;2.00;;;6.60;69.70;;;;;;4997763;28;20445;-78
2022/01/23 15:21:30;;;;;;;3.40;2.33;;;6.60;70.00;;;;;;5006485;28;20543;-79
2022/01/23 15:23:57;;;;;;;3.60;2.67;;;6.70;70.30;;;;;;5016541;28;20481;-78
2022/01/23 15:26:25;;;;;;;2.90;1.80;;;6.80;70.20;;;;;;5019414;28;20516;-79
2022/01/23 15:28:51;;;;;;;3.93;2.00;;;6.90;69.80;;;;;;5009012;28;20488;-79
2022/01/23 15:31:18;;;;;;;3.00;1.80;;;6.80;69.70;;;;;;4996166;28;20488;-79
2022/01/23 15:33:45;;;;;;;3.40;1.87;;;6.60;69.70;;;;;;4995761;28;20504;-79
2022/01/23 15:36:13;;;;;;;2.53;1.50;;;6.30;70.40;;;;;;4995378;28;20472;-79
2022/01/23 15:38:42;;;;;;;3.00;1.80;;;6.20;70.50;;;;;;4995073;28;20441;-79
2022/01/23 15:41:08;;;;;;;2.73;1.33;;;6.10;70.10;;;;;;4995125;28;20484;-79
2022/01/23 15:43:35;;;;;;;2.50;1.20;;;5.70;70.30;;;;;;4994802;28;20449;-79
2022/01/23 15:46:06;;;;;;;2.67;1.50;;;5.80;71.50;;;;;;4995316;28;20448;-79
2022/01/23 15:48:33;;;;;;;2.70;1.40;;;5.80;71.70;;;;;;4996859;28;20453;-79
2022/01/23 15:51:00;;;;;;;2.70;1.50;;;5.90;71.50;;;;;;4995117;28;20472;-79
2022/01/23 15:53:28;;;;;;;2.50;1.40;;;6.10;71.20;;;;;;4995005;28;20511;-79
2022/01/23 15:55:55;;;;;;;2.77;1.90;;;6.20;71.20;;;;;;4995064;28;20539;-79
2022/01/23 15:58:22;;;;;;;2.67;1.67;;;6.20;70.90;;;;;;4995037;28;20449;-79
2022/01/23 16:00:49;;;;;;;2.90;1.70;;;6.10;71.40;;;;;;4995410;28;20531;-79
2022/01/23 16:03:16;;;;;;;2.53;1.37;;;6.00;71.90;;;;;;4995016;28;20524;-79
2022/01/23 16:05:42;;;;;;;2.70;1.67;;;6.00;72.20;;;;;;4994902;28;20512;-79
2022/01/23 16:08:09;;;;;;;3.03;1.60;;;6.10;72.40;;;;;;4994806;28;20511;-79
2022/01/23 16:10:37;;;;;;;2.90;1.80;;;6.10;72.00;;;;;;4994742;28;20457;-79
2022/01/23 16:13:04;;;;;;;3.47;1.77;;;6.00;72.90;;;;;;4996193;28;20485;-79
2022/01/23 16:15:31;;;;;;;3.10;1.73;;;6.20;73.10;;;;;;4994804;28;20507;-79
2022/01/23 16:17:58;;;;;;;2.80;1.90;;;6.20;72.90;;;;;;4994599;28;20795;-79
2022/01/23 16:20:24;;;;;;;3.00;1.70;;;6.10;73.00;;;;;;4995220;28;20533;-79
2022/01/23 16:22:51;;;;;;;2.77;1.60;;;6.00;73.50;;;;;;4994895;28;20449;-79
2022/01/23 16:25:21;;;;;;;2.77;1.53;;;6.00;74.00;;;;;;4995294;28;20941;-79
2022/01/23 16:27:49;;;;;;;2.87;1.60;;;5.90;74.00;;;;;;5004583;28;20449;-79
2022/01/23 16:30:17;;;;;;;2.60;1.47;;;6.00;74.20;;;;;;5006364;28;20481;-79
2022/01/23 16:32:44;;;;;;;3.17;1.67;;;6.20;74.00;;;;;;4994978;28;20512;-78
2022/01/23 16:35:14;;;;;;;2.63;1.50;;;6.20;73.30;;;;;;4995845;28;20460;-79
2022/01/23 16:37:41;;;;;;;2.87;1.80;;;6.00;73.90;;;;;;4994990;28;20456;-79
2022/01/23 16:40:09;;;;;;;3.33;1.73;;;5.70;74.10;;;;;;4995022;28;20527;-79
2022/01/23 16:42:36;;;;;;;2.90;1.70;;;5.70;74.80;;;;;;4994368;28;20973;-79
2022/01/23 16:45:05;;;;;;;2.70;1.40;;;5.70;74.40;;;;;;4995020;28;20453;-79
2022/01/23 16:47:32;;;;;;;2.70;1.70;;;5.70;74.60;;;;;;4995260;28;20457;-79
2022/01/23 16:49:58;;;;;;;2.60;1.43;;;5.70;74.90;;;;;;4995196;28;20480;-79
2022/01/23 16:52:25;;;;;;;2.80;1.33;;;5.90;74.50;;;;;;4995804;28;20913;-79
2022/01/23 16:54:52;;;;;;;2.90;1.80;;;5.80;74.40;;;;;;4995636;28;20445;-79
2022/01/23 16:57:19;;;;;;;2.80;1.70;;;5.90;73.80;;;;;;4995078;28;20449;-79
2022/01/23 16:59:45;;;;;;;2.50;1.30;;;5.80;74.00;;;;;;4994824;28;20532;-79
2022/01/23 17:02:14;;;;;;;3.90;1.83;;;5.90;74.10;;;;;;4995486;28;20485;-79
2022/01/23 17:04:43;;;;;;;3.30;1.70;;;6.00;73.90;;;;;;4995611;28;20461;-79
2022/01/23 17:07:10;;;;;;;2.60;1.37;;;6.00;73.30;;;;;;4997263;28;20467;-78
2022/01/23 17:09:38;;;;;;;2.63;1.50;;;6.00;73.80;;;;;;4998367;28;20496;-79
2022/01/23 17:12:06;;;;;;;2.60;1.33;;;6.10;73.50;;;;;;4997804;28;20492;-79
2022/01/23 17:14:33;;;;;;;2.50;1.40;;;6.00;73.10;;;;;;4996944;28;20972;-78
2022/01/23 17:16:59;;;;;;;2.70;1.70;;;6.00;73.70;;;;;;4997035;28;20452;-79
2022/01/23 17:19:28;;;;;;;2.83;1.30;;;5.70;73.70;;;;;;4997009;28;20449;-79
2022/01/23 17:21:55;;;;;;;2.90;1.57;;;5.80;74.00;;;;;;4997468;28;20461;-79
2022/01/23 17:24:22;;;;;;;2.67;1.50;;;5.80;74.10;;;;;;4999054;28;20539;-79
2022/01/23 17:26:48;;;;;;;2.90;1.30;;;5.80;74.10;;;;;;4998213;28;20453;-79
2022/01/23 17:29:15;;;;;;;2.70;1.40;;;5.70;73.60;;;;;;4997407;28;20453;-79
2022/01/23 17:31:42;;;;;;;2.63;1.33;;;5.50;73.90;;;;;;4997162;28;20836;-78
2022/01/23 17:34:09;;;;;;;3.00;1.57;;;5.30;74.50;;;;;;4997158;28;20448;-78
2022/01/23 17:36:37;;;;;;;2.57;1.47;;;5.50;74.00;;;;;;4997282;28;20500;-79
2022/01/23 17:39:03;;;;;;;2.40;1.10;;;5.70;73.30;;;;;;4997680;28;20499;-78
2022/01/23 17:41:30;;;;;;;2.70;1.60;;;5.70;73.30;;;;;;4997541;28;20477;-79
2022/01/23 17:43:57;;;;;;;2.60;1.30;;;5.90;73.20;;;;;;4997615;28;20507;-79
2022/01/23 17:46:26;;;;;;;2.50;1.30;;;5.80;72.70;;;;;;4997509;28;20449;-79
2022/01/23 17:49:03;;;;;;;2.53;1.27;;;5.50;73.30;;;;;;4997251;28;20455;-79
2022/01/23 17:51:31;;;;;;;2.50;1.53;;;5.60;74.10;;;;;;4997790;28;20492;-78
2022/01/23 17:54:00;;;;;;;4.90;1.30;;;5.70;74.00;;;;;;4996706;28;20445;-78
2022/01/23 17:56:27;;;;;;;2.60;1.40;;;5.60;74.20;;;;;;4996677;28;20460;-78
2022/01/23 17:58:54;;;;;;;2.60;1.40;;;5.60;73.90;;;;;;4996927;28;20503;-78
2022/01/23 18:01:20;;;;;;;2.50;1.40;;;5.70;74.10;;;;;;4996748;28;20485;-78
2022/01/23 18:03:47;;;;;;;2.90;1.60;;;5.60;73.60;;;;;;4997561;28;20520;-79
2022/01/23 18:06:22;;;;;;;2.47;1.10;;;5.50;74.30;;;;;;4997057;28;20449;-79
2022/01/23 18:08:49;;;;;;;2.30;1.00;;;5.30;74.40;;;;;;4996490;28;20437;-79
2022/01/23 18:11:18;;;;;;;2.73;1.50;;;5.30;74.40;;;;;;4996372;28;20473;-79
2022/01/23 18:13:55;;;;;;;2.60;1.40;;;5.30;73.60;;;;;;4997176;28;20523;-79
2022/01/23 18:16:22;;;;;;;3.10;1.40;;;5.50;73.40;;;;;;4997848;28;20469;-79
2022/01/23 18:18:49;;;;;;;2.93;1.70;;;5.70;73.40;;;;;;4997094;28;20822;-79
2022/01/23 18:21:15;;;;;;;3.60;2.40;;;5.80;72.60;;;;;;4996930;28;20465;-79
2022/01/23 18:23:44;;;;;;;3.10;2.00;;;5.70;72.40;;;;;;4997927;28;20495;-79
2022/01/23 18:26:11;;;;;;;2.80;1.77;;;5.60;72.80;;;;;;5002494;28;20449;-79
2022/01/23 18:28:39;;;;;;;2.50;1.20;;;5.60;73.10;;;;;;4999124;28;20453;-79
2022/01/23 18:31:06;;;;;;;2.60;1.30;;;5.60;72.80;;;;;;5001456;28;20461;-79
2022/01/23 18:33:33;;;;;;;2.40;1.13;;;5.50;72.90;;;;;;5000571;28;20485;-79
2022/01/23 18:35:59;;;;;;;3.30;1.30;;;5.40;73.10;;;;;;4996006;28;20496;-79
2022/01/23 18:38:26;;;;;;;2.50;1.20;;;5.50;73.10;;;;;;4997768;28;20449;-78
2022/01/23 18:40:53;;;;;;;2.23;0.90;;;5.60;72.80;;;;;;4998597;28;20492;-78